Detall de PIREP

Printer-friendly versionPDF version

[2018/02/28 14:38:00]
Flight IATA:CT0001
Pilot Number:012
Company ICAO:CAT
Aircraft Type:B763/F
PAX:233
Departing Airport: LEIB
Destination Airport: LEBL
Alternate Airport:LEPA
Online: VATSIM
Route:EPAMA A293 MARTA
Flight Level:F180
No Slew and time accel
No pause
Crash detect
Detect pilot in Cockpit between each 30 and 45 minutes
14:38 Zero fuel Weight: 246111 Lbs, Fuel Weight: 18855 Lbs
14:38 VATSIM:LEIB 281730Z 18008KT 9999 FEW012 15/12 Q0999 NOSIG
14:38 VATSIM:LEBL 281730Z 32008KT 9999 -RA FEW010 BKN014 OVC025 06/04 Q0999 NOSIG
14:41 Parking Brakes off
14:44 Take-off
14:44 Take off Weight: 263750 Lbs
14:44 Wind: 242º @ 011 Knots Heading: 242º
14:44 POS N38º 52´ 24´´ E001º 22´ 28´´
14:44 Gear Up: 171 Knots
14:44 Flaps:2 at 171 Knots
14:44 Flaps:1 at 184 Knots
14:45 Flaps:0 at 216 Knots
14:49 TOC
14:49 Fuel Weight: 14765 Lb
14:50 TOD
14:50 Fuel Weight: 14573 Lb
14:50 TOC
14:50 Fuel Weight: 14556 Lb
14:51 TOD
14:51 Fuel Weight: 14443 Lb
14:51 TOC
14:51 Fuel Weight: 14430 Lb
14:52 TOD
14:52 Fuel Weight: 14247 Lb
14:52 TOC
14:52 Fuel Weight: 14243 Lb
14:52 TOD
14:52 Fuel Weight: 14159 Lb
14:53 TOC
14:53 Fuel Weight: 14152 Lb
14:53 TOD
14:53 Fuel Weight: 14061 Lb
14:53 TOC
14:53 Fuel Weight: 14045 Lb
14:54 TOD
14:54 Fuel Weight: 13966 Lb
14:54 TOC
14:54 Fuel Weight: 13953 Lb
14:54 TOD
14:54 Fuel Weight: 13856 Lb
14:54 TOC
14:54 Fuel Weight: 13843 Lb
14:55 TOD
14:55 Fuel Weight: 13763 Lb
14:55 TOC
14:55 Fuel Weight: 13749 Lb
14:55 TOD
14:55 Fuel Weight: 13673 Lb
14:55 TOC
14:55 Fuel Weight: 13657 Lb
14:56 TOD
14:56 Fuel Weight: 13565 Lb
14:56 TOC
14:56 Fuel Weight: 13550 Lb
14:56 TOD
14:56 Fuel Weight: 13472 Lb
14:56 TOC
14:56 Fuel Weight: 13465 Lb
14:57 TOD
14:57 Fuel Weight: 13363 Lb
14:57 TOC
14:57 Fuel Weight: 13359 Lb
14:57 TOD
14:57 Fuel Weight: 13272 Lb
14:57 TOC
14:57 Fuel Weight: 13265 Lb
14:58 TOD
14:58 Fuel Weight: 13168 Lb
14:58 TOC
14:58 Fuel Weight: 13157 Lb
14:58 TOD
14:58 Fuel Weight: 13078 Lb
14:58 TOC
14:58 Fuel Weight: 13065 Lb
14:59 Wind:336º@027 Knots Heading: 001º Ground Speed: 390 Knots Altitude 17568 ft
14:59 TOD
14:59 Fuel Weight: 12972 Lb
14:59 TOC
14:59 Fuel Weight: 12965 Lb
14:59 TOD
14:59 Fuel Weight: 12898 Lb
14:59 TOC
14:59 Fuel Weight: 12888 Lb
15:00 TOD
15:00 Fuel Weight: 12776 Lb
15:00 TOC
15:00 Fuel Weight: 12762 Lb
15:00 TOD
15:00 Fuel Weight: 12704 Lb
15:00 TOC
15:00 Fuel Weight: 12700 Lb
15:00 TOD
15:00 Fuel Weight: 12697 Lb
15:00 TOC
15:00 Fuel Weight: 12684 Lb
15:01 TOD
15:01 Fuel Weight: 12505 Lb
15:01 TOC
15:01 Fuel Weight: 12498 Lb
15:01 TOD
15:01 Fuel Weight: 12449 Lb
15:01 TOC
15:01 Fuel Weight: 12436 Lb
15:02 TOD
15:02 Fuel Weight: 12311 Lb
15:02 TOC
15:02 Fuel Weight: 12297 Lb
15:02 TOD
15:02 Fuel Weight: 12250 Lb
15:02 TOC
15:02 Fuel Weight: 12228 Lb
15:03 TOD
15:03 Fuel Weight: 12096 Lb
15:03 TOC
15:03 Fuel Weight: 12082 Lb
15:03 TOD
15:03 Fuel Weight: 12051 Lb
15:03 TOC
15:03 Fuel Weight: 12034 Lb
15:04 TOD
15:04 Fuel Weight: 11895 Lb
15:04 TOC
15:04 Fuel Weight: 11891 Lb
15:04 TOD
15:04 Fuel Weight: 11854 Lb
15:04 TOC
15:04 Fuel Weight: 11845 Lb
15:05 TOD
15:05 Fuel Weight: 11830 Lb
15:14 Wind:323º@037 Knots Heading: 026º Ground Speed: 251 Knots Altitude 6440 ft
15:16 Flaps:1 at 245 Knots
15:17 Gear Down: 215 Knots
15:17 Flaps:2 at 216 Knots
15:17 Flaps:3 at 205 Knots
15:17 Flaps:4 at 196 Knots
15:18 Flaps:5 at 175 Knots
15:18 Flaps:6 at 157 Knots
15:20 TouchDown:Rate -305 ft/min Speed: 121 Knots
15:20 TOC
15:20 Fuel Weight: 10411 Lb
15:20 TOD
15:20 Fuel Weight: 10408 Lb
15:20 VATSIM:LEBL 281800Z 33006KT 290V010 9999 -RA FEW010 BKN020 06/04 Q0998 NOSIG
15:20 Land
15:20 Wind:297º@005 Knots
15:20 Heading: 245º
15:20 Flight Duration: 00:36
15:20 Landing Weight: 256508 Lbs
15:20 POS N41º 18´ 02´´ E002º 05´ 19´´
15:23 Parking brakes on
15:23 Block to Block Duration: 00:42
15:23 Final Fuel: 10008 Lbls
15:23 Spent Fuel: 8847 Lbls
15:23 Flight Length: 194 NM
15:23 TOD Land Length: 00 NM

Exportar CSV

Powered by Drupal - Modified by Danger4k